Weather reports worldwide

Advertisment
Matera, Italy (16314): temperature & dewpoint: 03.07.2020 04:00:00 - 09.07.2020 04:00:00 (CEST)Matera, Italy (16314): wind speed: 03.07.2020 04:00:00 - 09.07.2020 04:00:00 (CEST)Matera, Italy (16314): wind direction: 03.07.2020 04:00:00 - 09.07.2020 04:00:00 (CEST)Matera, Italy (16314): reduced air pressure: 03.07.2020 04:00:00 - 09.07.2020 04:00:00 (CEST)Matera, Italy (16314): precipitation: 03.07.2020 04:00:00 - 09.07.2020 04:00:00 (CEST)
Date & Time tt [°C] td [°C] ff [km/h] ff [kn] dd ppp [hPa] rr [mm]
09.07.2020 04:00:00 - - - - - - -
09.07.2020 03:00:00 15,1 14,2 31 17 NNE 1019,3 -
09.07.2020 02:00:00 15,5 14,5 34 18 NE 1019,3 0,0
09.07.2020 01:00:00 16,2 14,1 28 15 NE 1019,4 -
09.07.2020 00:00:00 16,5 14,1 26 14 NNE 1019,2 -
08.07.2020 23:00:00 17,3 13,9 24 13 NNE 1019,0 -
08.07.2020 22:00:00 18,6 13,8 22 12 NNE 1018,5 -
08.07.2020 21:00:00 19,6 13,0 22 12 NE 1017,8 -
08.07.2020 20:00:00 22,2 12,4 28 15 NE 1017,1 0,0
08.07.2020 19:00:00 23,4 12,9 28 15 ENE 1016,8 -
08.07.2020 18:00:00 24,7 13,5 29 16 ENE 1016,4 -
08.07.2020 17:00:00 26,6 13,6 29 16 NE 1016,2 -
08.07.2020 16:00:00 26,9 12,8 29 16 NE 1016,1 -
08.07.2020 15:00:00 26,2 11,5 28 15 NNE 1016,6 -
08.07.2020 14:00:00 25,6 11,7 41 22 NE 1017,1 0,0
08.07.2020 13:00:00 24,6 11,2 42 23 NE 1017,4 -
08.07.2020 12:00:00 23,5 11,2 46 25 NE 1017,3 -
08.07.2020 11:00:00 22,6 11,6 48 26 NNE 1017,3 -
08.07.2020 10:00:00 21,6 12,7 52 28 NE 1017,3 -
08.07.2020 09:00:00 20,5 13,1 55 30 NE 1017,3 -
08.07.2020 08:00:00 18,9 15,1 42 23 NNE 1017,3 0,0
08.07.2020 07:00:00 16,5 15,3 37 20 N 1017,3 -
08.07.2020 06:00:00 15,2 14,2 31 17 N 1017,3 -
08.07.2020 05:00:00 15,6 13,4 37 20 N 1017,2 -
08.07.2020 04:00:00 16,0 13,2 29 16 N 1017,1 -
08.07.2020 03:00:00 15,7 13,1 26 14 N 1017,2 -
08.07.2020 02:00:00 16,3 13,3 37 20 NNE 1017,1 0,0
08.07.2020 01:00:00 17,1 13,7 37 20 NNE 1017,1 -
08.07.2020 00:00:00 18,0 14,2 35 19 NNE 1016,8 -
07.07.2020 23:00:00 19,1 14,9 34 18 NNE 1016,2 -
07.07.2020 22:00:00 19,3 16,3 35 19 NE 1015,9 -
07.07.2020 21:00:00 20,1 16,1 41 22 NE 1015,2 -
07.07.2020 20:00:00 21,8 16,0 52 28 NE 1014,1 0,0
07.07.2020 19:00:00 23,2 15,4 63 34 NE 1013,4 -
07.07.2020 18:00:00 24,1 14,1 59 32 NE 1013,2 -
07.07.2020 17:00:00 24,7 12,9 61 33 NE 1012,6 -
07.07.2020 16:00:00 25,6 15,2 76 41 NE 1011,9 -
07.07.2020 15:00:00 26,6 15,6 65 35 NE 1011,4 -
07.07.2020 14:00:00 27,1 16,6 59 32 NNE 1010,9 0,0
07.07.2020 13:00:00 26,4 16,9 63 34 NE 1010,5 -
07.07.2020 12:00:00 25,8 18,2 59 32 NE 1010,3 -
07.07.2020 11:00:00 26,2 14,9 50 27 NE 1009,9 -
07.07.2020 10:00:00 26,2 13,9 41 22 NE 1009,4 -
07.07.2020 09:00:00 23,9 15,1 28 15 NNE 1009,3 -
07.07.2020 08:00:00 22,1 13,6 24 13 NNE 1009,2 0,0
07.07.2020 07:00:00 20,5 13,4 26 14 NNE 1009,3 -
07.07.2020 06:00:00 19,1 13,4 26 14 N 1009,2 -
07.07.2020 05:00:00 19,3 14,3 28 15 N 1008,7 -
07.07.2020 04:00:00 19,1 14,5 22 12 NNE 1008,9 -
07.07.2020 03:00:00 19,2 15,4 18 10 NNE 1008,9 -
07.07.2020 02:00:00 19,3 16,3 21 11 NNE 1008,9 0,0
07.07.2020 01:00:00 20,5 16,0 21 11 NNE 1009,0 -
07.07.2020 00:00:00 20,2 16,8 16 9 NNE 1009,2 -
06.07.2020 23:00:00 21,0 16,5 18 10 NE 1009,2 -
06.07.2020 22:00:00 21,4 15,6 18 10 NE 1009,2 -
06.07.2020 21:00:00 22,8 15,3 15 8 NE 1008,5 -
06.07.2020 20:00:00 24,7 15,5 22 12 ENE 1008,1 0,0
06.07.2020 19:00:00 26,1 15,4 31 17 NE 1007,6 -
06.07.2020 18:00:00 26,7 15,4 37 20 ENE 1007,2 -
06.07.2020 17:00:00 27,3 15,9 37 20 ENE 1007,2 -
06.07.2020 16:00:00 27,6 16,5 39 21 ENE 1007,5 -
06.07.2020 15:00:00 27,7 16,3 31 17 ENE 1007,9 -
06.07.2020 14:00:00 27,5 16,7 29 16 NE 1008,4 0,0
06.07.2020 13:00:00 26,6 17,0 29 16 ENE 1008,7 -
06.07.2020 12:00:00 25,7 17,3 41 22 ENE 1009,4 -
06.07.2020 11:00:00 24,1 16,5 29 16 ENE 1010,1 -
06.07.2020 10:00:00 24,1 16,8 28 15 NE 1010,4 -
06.07.2020 09:00:00 22,8 16,7 29 16 N 1010,3 -
06.07.2020 08:00:00 20,5 15,6 35 19 N 1010,7 0,0
06.07.2020 07:00:00 19,1 14,7 34 18 N 1011,2 -
06.07.2020 06:00:00 18,3 13,9 41 22 N 1011,0 -
06.07.2020 05:00:00 18,3 13,9 44 24 N 1011,1 -
06.07.2020 04:00:00 18,5 14,5 48 26 N 1011,6 -
06.07.2020 03:00:00 18,4 15,0 41 22 N 1012,2 -
06.07.2020 02:00:00 18,7 14,7 39 21 N 1013,2 0,0
06.07.2020 01:00:00 19,1 14,9 41 22 N 1013,8 -
06.07.2020 00:00:00 19,3 15,5 37 20 N 1013,9 -
05.07.2020 23:00:00 19,9 18,1 37 20 NNE 1013,6 -
05.07.2020 22:00:00 20,6 18,7 34 18 NE 1013,6 -
05.07.2020 21:00:00 22,0 16,6 34 18 NE 1012,7 -
05.07.2020 20:00:00 23,8 15,7 42 23 NE 1012,4 0,0
05.07.2020 19:00:00 24,3 15,4 37 20 NE 1012,3 -
05.07.2020 18:00:00 25,0 14,4 44 24 NE 1012,5 -
05.07.2020 17:00:00 26,5 14,5 63 34 NE 1012,0 -
05.07.2020 16:00:00 26,0 14,7 59 32 NE 1012,3 -
05.07.2020 15:00:00 25,6 15,8 55 30 NE 1013,1 -
05.07.2020 14:00:00 25,4 17,0 57 31 NE 1013,4 0,0
05.07.2020 13:00:00 25,0 18,4 52 28 NE 1013,7 -
05.07.2020 12:00:00 23,7 18,1 52 28 NE 1014,2 -
05.07.2020 11:00:00 23,2 18,7 59 32 NE 1014,4 -
05.07.2020 10:00:00 22,1 19,0 54 29 NE 1014,2 -
05.07.2020 09:00:00 20,7 17,8 44 24 NNE 1014,6 -
05.07.2020 08:00:00 18,9 17,3 44 24 NNE 1014,5 0,0
05.07.2020 07:00:00 17,9 17,8 46 25 N 1014,4 -
05.07.2020 06:00:00 17,4 17,3 39 21 N 1014,8 -
05.07.2020 05:00:00 17,6 17,5 41 22 N 1014,5 -
05.07.2020 04:00:00 17,3 16,6 34 18 N 1014,8 -
05.07.2020 03:00:00 17,4 16,5 39 21 N 1015,5 -
05.07.2020 02:00:00 17,7 16,5 34 18 N 1016,2 0,0
05.07.2020 01:00:00 17,8 17,1 31 17 NNE 1016,4 -
05.07.2020 00:00:00 17,9 17,2 34 18 NNE 1016,3 -
04.07.2020 23:00:00 18,0 17,0 39 21 NNE 1015,6 -
04.07.2020 22:00:00 18,5 16,8 41 22 NE 1015,4 -
04.07.2020 21:00:00 19,0 16,5 28 15 N 1014,9 -
04.07.2020 20:00:00 19,4 17,1 41 22 N 1015,0 -
04.07.2020 19:00:00 19,5 16,5 34 18 NNE 1015,0 -
04.07.2020 18:00:00 20,3 17,8 39 21 NNE 1014,8 -
04.07.2020 17:00:00 18,7 16,6 42 23 NNE 1015,6 -
04.07.2020 16:00:00 18,9 17,7 31 17 NE 1016,9 -
04.07.2020 15:00:00 18,3 17,8 21 11 NW 1017,6 -
04.07.2020 14:00:00 18,0 15,2 48 26 N 1015,9 -
04.07.2020 13:00:00 28,5 17,6 15 8 SE 1012,9 -
04.07.2020 12:00:00 28,2 18,5 15 8 NE 1013,8 -
04.07.2020 11:00:00 27,2 19,7 18 10 NNE 1013,9 -
04.07.2020 10:00:00 25,5 20,2 28 15 NNE 1014,3 -
04.07.2020 09:00:00 23,5 21,5 31 17 NNE 1014,6 -
04.07.2020 08:00:00 21,8 21,7 24 13 N 1014,8 0,0
04.07.2020 07:00:00 20,5 20,4 22 12 N 1014,7 -
04.07.2020 06:00:00 19,7 19,6 28 15 N 1014,7 -
04.07.2020 05:00:00 19,7 19,6 28 15 N 1014,6 -
04.07.2020 04:00:00 19,9 19,8 26 14 NNE 1014,6 -
04.07.2020 03:00:00 20,4 20,3 29 16 N 1014,6 -
04.07.2020 02:00:00 20,8 20,7 24 13 NNE 1014,6 0,0
04.07.2020 01:00:00 21,3 20,6 26 14 NNE 1014,8 -
04.07.2020 00:00:00 21,9 19,9 24 13 NNE 1014,8 -
03.07.2020 23:00:00 22,2 19,5 24 13 NE 1014,8 -
03.07.2020 22:00:00 23,3 20,2 24 13 NE 1014,1 -
03.07.2020 21:00:00 23,4 18,6 21 11 NNE 1012,9 -
03.07.2020 20:00:00 25,9 19,7 13 7 SSE 1012,0 -
03.07.2020 19:00:00 21,2 18,9 42 23 E 1013,2 -
03.07.2020 18:00:00 28,0 17,2 9 5 SW 1010,9 -
03.07.2020 17:00:00 29,9 17,3 22 12 S 1010,1 -
03.07.2020 16:00:00 29,3 17,4 29 16 SE 1010,5 -
03.07.2020 15:00:00 34,2 15,7 18 10 W 1009,2 -
03.07.2020 14:00:00 33,8 16,7 15 8 WSW 1010,1 0,0
03.07.2020 13:00:00 32,5 16,8 15 8 W 1010,6 -
03.07.2020 12:00:00 32,0 17,5 11 6 N 1010,8 -
03.07.2020 11:00:00 30,5 16,5 5 3 NNW 1010,9 -
03.07.2020 10:00:00 29,7 16,8 8 4 NNE 1011,2 -
03.07.2020 09:00:00 28,2 17,7 5 3 ENE 1011,5 -
03.07.2020 08:00:00 26,3 18,1 9 5 NE 1011,5 0,0
03.07.2020 07:00:00 23,3 19,6 15 8 NNE 1011,8 -
03.07.2020 06:00:00 21,5 17,8 24 13 NNE 1012,2 -
03.07.2020 05:00:00 22,9 17,7 16 9 NNE 1011,9 -
03.07.2020 04:00:00 23,2 17,8 13 7 NE 1011,5 -

tt = temperature
td = dewpoint
ff = wind speed
dd = wind direction
ppp = reduced air pressure
rr = precipitation

Next stations